createdAt,value
2022-09-01T00:00:13.816Z,57.11
2022-09-01T00:02:43.129Z,57.11
2022-09-01T00:05:12.985Z,58.13
2022-09-01T00:07:39.820Z,58.58
2022-09-01T00:10:08.413Z,59.21
2022-09-01T00:12:37.016Z,59.55
2022-09-01T00:15:05.699Z,60.42
2022-09-01T00:17:35.182Z,60.50
2022-09-01T00:20:02.372Z,61.34
2022-09-01T00:22:33.717Z,62.44
2022-09-01T00:25:02.710Z,61.71
2022-09-01T00:27:35.324Z,62.50
2022-09-01T00:30:05.756Z,64.00
2022-09-01T00:32:34.970Z,63.16
2022-09-01T00:35:01.693Z,65.78
2022-09-01T00:37:31.256Z,65.22
2022-09-01T00:39:58.020Z,65.77
2022-09-01T00:42:25.034Z,66.57
2022-09-01T00:44:57.408Z,66.93
2022-09-01T00:47:24.344Z,68.04
2022-09-01T00:49:54.571Z,68.78
2022-09-01T00:52:26.963Z,69.87
2022-09-01T00:54:56.493Z,70.03
2022-09-01T00:57:23.294Z,72.13
2022-09-01T00:59:55.814Z,71.75
2022-09-01T01:02:25.862Z,70.39
2022-09-01T01:04:52.922Z,72.04
2022-09-01T01:07:22.664Z,72.93
2022-09-01T01:09:50.552Z,73.02
2022-09-01T01:12:20.461Z,73.45
2022-09-01T01:14:50.994Z,73.77
2022-09-01T01:17:23.831Z,73.18
2022-09-01T01:20:13.543Z,73.20
2022-09-01T01:23:05.798Z,74.44
2022-09-01T01:25:38.526Z,73.43
2022-09-01T01:28:10.225Z,72.91
2022-09-01T01:30:41.896Z,71.29
2022-09-01T01:33:11.974Z,72.20
2022-09-01T01:35:40.089Z,72.61
2022-09-01T01:38:08.187Z,73.41
2022-09-01T01:40:38.485Z,74.78
2022-09-01T01:43:05.761Z,73.75
2022-09-01T01:45:33.070Z,74.36
2022-09-01T01:48:08.688Z,74.23
2022-09-01T01:50:39.198Z,74.89
2022-09-01T01:53:14.013Z,75.20
2022-09-01T01:55:43.885Z,75.16
2022-09-01T01:58:16.660Z,75.75
2022-09-01T02:00:44.586Z,74.62
2022-09-01T02:03:12.879Z,75.56
2022-09-01T02:05:42.092Z,75.93
2022-09-01T02:08:11.677Z,76.62
2022-09-01T02:10:45.316Z,75.52
2022-09-01T02:13:17.231Z,76.27
2022-09-01T02:15:54.685Z,75.37
2022-09-01T02:18:30.099Z,75.23
2022-09-01T02:21:01.355Z,75.69
2022-09-01T02:23:31.808Z,75.56
2022-09-01T02:26:16.157Z,76.47
2022-09-01T02:28:55.372Z,76.13
2022-09-01T02:31:28.605Z,75.97
2022-09-01T02:34:02.118Z,75.75
2022-09-01T02:36:51.272Z,75.40
2022-09-01T02:39:28.009Z,75.18
2022-09-01T02:41:55.932Z,73.96
2022-09-01T02:44:39.494Z,73.96
2022-09-01T02:47:13.146Z,73.82
2022-09-01T02:49:42.644Z,73.68
2022-09-01T02:52:10.353Z,73.39
2022-09-01T02:54:39.450Z,73.07
2022-09-01T02:57:11.860Z,73.54
2022-09-01T02:59:43.218Z,73.06
2022-09-01T03:02:10.831Z,73.30
2022-09-01T03:04:42.646Z,73.05
2022-09-01T03:07:13.962Z,73.06
2022-09-01T03:09:43.060Z,75.05
2022-09-01T03:12:12.111Z,74.75
2022-09-01T03:14:49.339Z,74.75
2022-09-01T03:17:18.598Z,74.06
2022-09-01T03:19:55.182Z,74.27
2022-09-01T03:22:40.070Z,74.19
2022-09-01T03:25:10.395Z,73.60
2022-09-01T03:31:09.108Z,74.18
2022-09-01T03:33:49.154Z,74.11
2022-09-01T03:36:27.743Z,73.46
2022-09-01T03:40:21.629Z,72.06
2022-09-01T03:42:12.111Z,70.59
2022-09-01T03:44:42.902Z,71.10
2022-09-01T03:47:15.415Z,71.77
2022-09-01T03:49:45.681Z,71.23
2022-09-01T03:52:14.813Z,70.96
2022-09-01T03:58:06.571Z,72.61
2022-09-01T04:00:42.530Z,73.22
2022-09-01T04:03:31.994Z,73.37
2022-09-01T04:06:30.635Z,73.74
2022-09-01T04:09:20.642Z,73.91
2022-09-01T04:11:53.875Z,73.03
2022-09-01T04:14:27.781Z,73.14
2022-09-01T04:17:16.185Z,71.62
2022-09-01T04:19:45.897Z,70.57
2022-09-01T04:22:14.587Z,71.92
2022-09-01T04:24:48.964Z,72.61
2022-09-01T04:27:23.157Z,71.25
2022-09-01T04:30:02.774Z,72.04
2022-09-01T04:32:41.226Z,72.03
2022-09-01T04:35:17.031Z,71.86
2022-09-01T04:37:46.228Z,72.30
2022-09-01T04:40:16.353Z,72.51
2022-09-01T04:42:45.937Z,72.66
2022-09-01T04:45:14.641Z,72.95
2022-09-01T04:47:47.838Z,72.93
2022-09-01T04:50:27.702Z,72.07
2022-09-01T04:53:18.547Z,72.85
2022-09-01T04:55:49.965Z,71.54
2022-09-01T04:58:19.508Z,72.24
2022-09-01T05:00:56.006Z,72.64
2022-09-01T05:03:24.549Z,71.84
2022-09-01T05:06:19.377Z,72.90
2022-09-01T05:08:53.629Z,72.67
2022-09-01T05:11:45.744Z,72.74
2022-09-01T05:14:21.626Z,73.23
2022-09-01T05:16:54.086Z,73.61
2022-09-01T05:19:21.648Z,73.66
2022-09-01T05:21:49.807Z,73.50
2022-09-01T05:24:21.834Z,73.80
2022-09-01T05:26:51.233Z,72.99
2022-09-01T05:29:19.106Z,73.64
2022-09-01T05:31:50.404Z,74.01
2022-09-01T05:34:26.746Z,75.19
2022-09-01T05:37:00.242Z,75.56
2022-09-01T05:39:30.791Z,76.09
2022-09-01T05:42:01.703Z,75.39
2022-09-01T05:44:28.682Z,75.56
2022-09-01T05:46:59.351Z,76.46
2022-09-01T05:49:33.165Z,76.10
2022-09-01T05:52:03.439Z,76.95
2022-09-01T05:54:32.651Z,76.56
2022-09-01T05:57:23.420Z,76.42
2022-09-01T05:59:55.001Z,76.46
2022-09-01T06:02:28.948Z,75.76
2022-09-01T06:04:57.627Z,76.98
2022-09-01T06:07:30.319Z,77.96
2022-09-01T06:10:00.318Z,78.94
2022-09-01T06:12:32.066Z,78.26
2022-09-01T06:14:59.098Z,76.90
2022-09-01T06:17:27.194Z,77.96
2022-09-01T06:19:58.042Z,78.46
2022-09-01T06:22:31.668Z,78.57
2022-09-01T06:25:02.348Z,78.58
2022-09-01T06:27:34.280Z,77.90
2022-09-01T06:30:04.910Z,76.75
2022-09-01T06:32:39.305Z,75.99
2022-09-01T06:35:09.455Z,76.23
2022-09-01T06:37:39.638Z,76.24
2022-09-01T06:40:18.182Z,76.41
2022-09-01T06:42:49.591Z,76.83
2022-09-01T06:45:20.460Z,75.45
2022-09-01T06:47:48.675Z,75.99
2022-09-01T06:56:07.102Z,75.28
2022-09-01T06:58:36.961Z,75.45
2022-09-01T07:01:15.508Z,74.59
2022-09-01T07:03:51.308Z,74.44
2022-09-01T07:06:59.342Z,72.96
2022-09-01T07:10:05.699Z,73.59
2022-09-01T07:13:05.058Z,72.55
2022-09-01T07:18:27.116Z,72.80
2022-09-01T07:24:10.942Z,72.82
2022-09-01T07:26:47.191Z,72.85
2022-09-01T07:29:24.741Z,72.13
2022-09-01T07:34:47.594Z,72.00
2022-09-01T07:39:57.487Z,74.12
2022-09-01T07:42:59.010Z,72.48
2022-09-01T07:43:27.263Z,67.42
2022-09-01T07:46:39.546Z,68.44
2022-09-01T07:51:59.730Z,69.02
2022-09-01T07:54:30.274Z,68.55
2022-09-01T07:56:59.755Z,69.26
2022-09-01T07:59:27.964Z,67.51
2022-09-01T08:02:05.886Z,66.69
2022-09-01T08:04:39.957Z,68.18
2022-09-01T08:07:15.362Z,67.02
2022-09-01T08:09:44.114Z,67.32
2022-09-01T08:12:14.073Z,66.93
2022-09-01T08:17:56.758Z,67.85
2022-09-01T08:20:28.405Z,67.70
2022-09-01T08:22:59.336Z,67.86
2022-09-01T08:25:41.316Z,67.41
2022-09-01T08:28:08.670Z,67.71
2022-09-01T08:30:39.687Z,66.97
2022-09-01T08:33:13.216Z,67.33
2022-09-01T08:35:48.420Z,66.89
2022-09-01T08:38:21.915Z,67.18
2022-09-01T08:40:57.632Z,67.06
2022-09-01T08:44:08.147Z,66.34
2022-09-01T08:46:39.438Z,66.31
2022-09-01T08:49:28.167Z,66.16
2022-09-01T08:52:31.785Z,64.20
2022-09-01T08:55:27.351Z,61.49
2022-09-01T08:57:59.734Z,62.97
2022-09-01T09:00:30.318Z,62.24
2022-09-01T09:03:08.929Z,60.78
2022-09-01T09:06:02.161Z,62.04
2022-09-01T09:08:58.081Z,62.05
2022-09-01T09:11:24.770Z,62.77
2022-09-01T09:14:28.750Z,63.44
2022-09-01T09:16:59.485Z,63.24
2022-09-01T09:19:32.575Z,61.95
2022-09-01T09:22:13.673Z,61.47
2022-09-01T09:25:02.606Z,59.08
2022-09-01T09:27:30.948Z,58.70
2022-09-01T09:30:09.622Z,59.34
2022-09-01T09:33:16.103Z,57.89
2022-09-01T09:35:38.624Z,58.10
2022-09-01T09:38:18.983Z,56.98
2022-09-01T09:41:20.569Z,58.69
2022-09-01T09:43:58.978Z,59.75
2022-09-01T09:46:32.054Z,59.43
2022-09-01T09:49:10.284Z,58.35
2022-09-01T09:51:39.387Z,58.37
2022-09-01T09:54:13.498Z,59.05
2022-09-01T09:56:46.552Z,59.99
2022-09-01T09:59:34.206Z,57.86
2022-09-01T10:02:28.430Z,57.26
2022-09-01T10:04:56.124Z,56.95
2022-09-01T10:07:35.409Z,54.32
2022-09-01T10:10:06.880Z,55.61
2022-09-01T10:12:37.200Z,56.72
2022-09-01T10:15:12.590Z,56.57
2022-09-01T10:17:45.029Z,55.08
2022-09-01T10:20:21.285Z,55.27
2022-09-01T10:22:49.661Z,54.52
2022-09-01T10:25:29.196Z,54.60
2022-09-01T10:28:02.570Z,53.55
2022-09-01T10:30:30.569Z,53.99
2022-09-01T10:33:11.033Z,54.42
2022-09-01T10:35:47.318Z,53.28
2022-09-01T10:38:17.220Z,52.64
2022-09-01T10:41:07.719Z,53.16
2022-09-01T10:43:45.116Z,49.11
2022-09-01T10:46:38.601Z,49.21
2022-09-01T10:49:46.511Z,45.71
2022-09-01T10:52:43.329Z,42.94
2022-09-01T10:55:25.127Z,46.04
2022-09-01T11:01:11.797Z,45.59
2022-09-01T11:03:51.679Z,44.45
2022-09-01T11:09:44.727Z,43.58
2022-09-01T11:12:29.491Z,40.78
2022-09-01T11:15:07.588Z,40.35
2022-09-01T11:17:41.577Z,42.61
2022-09-01T11:20:41.359Z,37.43
2022-09-01T11:23:22.466Z,41.75
2022-09-01T11:28:46.133Z,38.34
2022-09-01T11:31:21.991Z,38.31
2022-09-01T11:34:13.305Z,37.98
2022-09-01T11:36:49.903Z,39.39
2022-09-01T11:39:30.201Z,36.97
2022-09-01T11:42:36.164Z,37.98
2022-09-01T11:45:20.614Z,33.75
2022-09-01T11:47:55.532Z,36.26
2022-09-01T11:50:32.378Z,33.90
2022-09-01T11:53:21.964Z,34.13
2022-09-01T11:55:54.832Z,34.63
2022-09-01T11:58:33.124Z,33.07
2022-09-01T12:01:22.668Z,30.74
2022-09-01T12:03:53.158Z,32.82
2022-09-01T12:06:25.503Z,32.69
2022-09-01T12:08:58.188Z,29.24
2022-09-01T12:11:33.441Z,28.27
2022-09-01T12:14:02.313Z,30.10
2022-09-01T12:16:34.933Z,29.31
2022-09-01T12:19:02.401Z,30.01
2022-09-01T12:21:33.378Z,29.97
2022-09-01T12:24:18.168Z,26.05
2022-09-01T12:26:46.184Z,26.67
2022-09-01T12:29:28.887Z,26.07
2022-09-01T12:32:01.813Z,28.67
2022-09-01T12:34:44.843Z,27.38
2022-09-01T12:37:14.865Z,27.30
2022-09-01T12:39:44.810Z,26.97
2022-09-01T12:42:20.227Z,26.42
2022-09-01T12:44:53.766Z,24.23
2022-09-01T12:47:48.025Z,24.09
2022-09-01T12:50:16.420Z,25.28
2022-09-01T12:52:52.337Z,23.10
2022-09-01T12:58:12.179Z,24.79
2022-09-01T13:01:16.534Z,23.34
2022-09-01T13:04:09.659Z,21.74
2022-09-01T13:06:41.882Z,23.79
2022-09-01T13:09:10.129Z,24.13
2022-09-01T13:14:25.638Z,20.86
2022-09-01T13:16:55.495Z,21.76
2022-09-01T13:19:28.799Z,22.70
2022-09-01T13:21:59.831Z,22.83
2022-09-01T13:24:31.316Z,22.97
2022-09-01T13:29:46.611Z,23.65
2022-09-01T13:32:19.023Z,23.60
2022-09-01T13:34:51.807Z,23.13
2022-09-01T13:37:21.273Z,22.81
2022-09-01T13:39:51.372Z,22.76
2022-09-01T13:42:21.105Z,22.27
2022-09-01T13:44:51.135Z,23.07
2022-09-01T13:47:31.838Z,23.32
2022-09-01T13:50:19.907Z,23.34
2022-09-01T13:52:55.230Z,20.57
2022-09-01T13:55:30.915Z,22.08
2022-09-01T13:57:59.236Z,20.91
2022-09-01T14:00:27.047Z,21.89
2022-09-01T14:02:56.586Z,23.05
2022-09-01T14:05:31.863Z,22.68
2022-09-01T14:08:01.519Z,23.06
2022-09-01T14:10:32.515Z,22.88
2022-09-01T14:12:59.775Z,23.14
2022-09-01T14:15:29.218Z,23.49
2022-09-01T14:17:57.346Z,22.71
2022-09-01T14:20:27.351Z,23.21
2022-09-01T14:22:55.713Z,23.68
2022-09-01T14:25:23.355Z,23.40
2022-09-01T14:27:53.540Z,23.85
2022-09-01T14:30:31.016Z,23.93
2022-09-01T14:33:01.301Z,23.55
2022-09-01T14:35:33.165Z,23.77
2022-09-01T14:38:05.243Z,22.78
2022-09-01T14:40:32.342Z,22.65
2022-09-01T14:42:59.724Z,23.27
2022-09-01T14:45:28.888Z,22.97
2022-09-01T14:47:59.079Z,22.70
2022-09-01T14:50:32.039Z,22.67
2022-09-01T14:53:02.221Z,23.32
2022-09-01T14:55:32.844Z,22.48
2022-09-01T14:58:00.927Z,22.62
2022-09-01T15:00:31.560Z,22.28
2022-09-01T15:03:00.921Z,22.17
2022-09-01T15:05:27.858Z,21.62
2022-09-01T15:07:54.652Z,21.71
2022-09-01T15:10:25.120Z,21.31
2022-09-01T15:12:57.705Z,21.14
2022-09-01T15:15:28.278Z,21.64
2022-09-01T15:17:55.678Z,21.29
2022-09-01T15:20:41.662Z,21.19
2022-09-01T15:23:08.463Z,20.47
2022-09-01T15:25:35.685Z,20.96
2022-09-01T15:28:02.706Z,21.10
2022-09-01T15:30:29.698Z,20.69
2022-09-01T15:32:56.717Z,21.11
2022-09-01T15:35:23.951Z,21.37
2022-09-01T15:37:51.812Z,21.22
2022-09-01T15:40:20.894Z,21.45
2022-09-01T15:42:50.342Z,21.28
2022-09-01T15:45:20.140Z,20.88
2022-09-01T15:47:50.152Z,21.45
2022-09-01T15:50:22.208Z,21.66
2022-09-01T15:52:54.682Z,22.10
2022-09-01T15:55:40.999Z,21.94
2022-09-01T15:58:12.883Z,22.76
2022-09-01T16:00:40.977Z,23.19
2022-09-01T16:03:13.883Z,23.39
2022-09-01T16:05:43.205Z,23.83
2022-09-01T16:08:12.979Z,24.48
2022-09-01T16:10:44.548Z,24.68
2022-09-01T16:13:11.727Z,24.90
2022-09-01T16:16:01.425Z,25.91
2022-09-01T16:18:41.825Z,26.12
2022-09-01T16:21:22.184Z,25.85
2022-09-01T16:23:50.948Z,26.38
2022-09-01T16:26:20.346Z,26.88
2022-09-01T16:28:53.254Z,26.70
2022-09-01T16:31:30.519Z,26.92
2022-09-01T16:34:05.431Z,27.72
2022-09-01T16:36:44.993Z,27.98
2022-09-01T16:39:16.088Z,28.10
2022-09-01T16:41:52.139Z,27.96
2022-09-01T16:44:38.828Z,28.27
2022-09-01T16:47:35.126Z,28.48
2022-09-01T16:50:11.003Z,28.29
2022-09-01T16:53:05.935Z,29.42
2022-09-01T16:56:07.478Z,28.77
2022-09-01T16:58:53.956Z,28.95
2022-09-01T17:01:24.272Z,28.98
2022-09-01T17:04:16.994Z,29.74
2022-09-01T17:07:03.054Z,29.65
2022-09-01T17:09:44.517Z,30.62
2022-09-01T17:12:37.036Z,29.75
2022-09-01T17:15:14.892Z,30.33
2022-09-01T17:17:47.093Z,30.42
2022-09-01T17:20:19.948Z,30.36
2022-09-01T17:22:52.170Z,31.42
2022-09-01T17:25:35.311Z,32.12
2022-09-01T17:28:10.674Z,32.08
2022-09-01T17:30:47.147Z,32.53
2022-09-01T17:33:29.126Z,32.77
2022-09-01T17:36:24.060Z,33.73
2022-09-01T17:38:54.857Z,33.64
2022-09-01T17:41:34.378Z,34.04
2022-09-01T17:44:12.534Z,35.28
2022-09-01T17:46:46.376Z,35.47
2022-09-01T17:49:47.214Z,35.78
2022-09-01T17:52:39.963Z,36.30
2022-09-01T17:55:22.084Z,36.36
2022-09-01T17:58:02.081Z,36.31
2022-09-01T18:01:09.278Z,36.54
2022-09-01T18:04:11.912Z,37.33
2022-09-01T18:06:49.613Z,37.01
2022-09-01T18:09:18.400Z,37.09
2022-09-01T18:11:51.428Z,37.22
2022-09-01T18:14:22.427Z,37.55
2022-09-01T18:16:49.043Z,37.53
2022-09-01T18:19:26.769Z,37.65
2022-09-01T18:21:56.606Z,38.47
2022-09-01T18:24:54.384Z,38.87
2022-09-01T18:27:24.309Z,39.07
2022-09-01T18:29:53.062Z,39.10
2022-09-01T18:32:32.451Z,39.61
2022-09-01T18:34:59.616Z,40.01
2022-09-01T18:37:58.076Z,41.02
2022-09-01T18:40:34.271Z,40.75
2022-09-01T18:43:16.858Z,41.28
2022-09-01T18:46:19.733Z,41.92
2022-09-01T18:49:08.640Z,41.54
2022-09-01T18:52:08.534Z,42.35
2022-09-01T18:54:55.306Z,43.67
2022-09-01T18:57:28.825Z,42.27
2022-09-01T18:59:59.054Z,42.70
2022-09-01T19:02:43.630Z,43.17
2022-09-01T19:05:35.918Z,44.28
2022-09-01T19:08:40.256Z,44.37
2022-09-01T19:11:36.157Z,44.24
2022-09-01T19:14:12.216Z,45.61
2022-09-01T19:17:14.181Z,45.80
2022-09-01T19:19:44.543Z,45.75
2022-09-01T19:22:26.985Z,46.09
2022-09-01T19:25:27.899Z,47.33
2022-09-01T19:28:12.112Z,46.68
2022-09-01T19:30:48.294Z,46.84
2022-09-01T19:33:18.249Z,47.18
2022-09-01T19:35:51.218Z,47.74
2022-09-01T19:38:23.860Z,47.79
2022-09-01T19:41:15.207Z,48.18
2022-09-01T19:43:43.517Z,48.79
2022-09-01T19:46:13.350Z,49.17
2022-09-01T19:49:00.059Z,49.80
2022-09-01T19:51:34.704Z,50.08
2022-09-01T19:54:27.802Z,49.98
2022-09-01T19:57:20.256Z,51.33
2022-09-01T20:00:13.836Z,51.42
2022-09-01T20:02:53.203Z,50.55
2022-09-01T20:05:27.976Z,50.35
2022-09-01T20:07:58.109Z,50.65
2022-09-01T20:11:07.022Z,52.42
2022-09-01T20:13:39.333Z,50.61
2022-09-01T20:16:23.659Z,50.29
2022-09-01T20:19:00.310Z,50.73
2022-09-01T20:21:29.656Z,51.11
2022-09-01T20:24:04.257Z,51.12
2022-09-01T20:26:49.490Z,51.50
2022-09-01T20:29:32.973Z,50.95
2022-09-01T20:32:03.985Z,50.74
2022-09-01T20:34:48.655Z,51.31
2022-09-01T20:37:21.622Z,50.87
2022-09-01T20:40:27.145Z,50.91
2022-09-01T20:42:54.234Z,50.49
2022-09-01T20:45:25.389Z,50.70
2022-09-01T20:48:04.085Z,51.53
2022-09-01T20:50:45.368Z,51.04
2022-09-01T20:53:42.553Z,51.97
2022-09-01T20:56:31.830Z,51.26
2022-09-01T20:59:25.046Z,51.63
2022-09-01T21:02:22.409Z,52.34
2022-09-01T21:05:21.484Z,51.66
2022-09-01T21:08:10.036Z,52.18
2022-09-01T21:10:49.019Z,52.88
2022-09-01T21:13:34.510Z,52.45
2022-09-01T21:16:18.223Z,51.51
2022-09-01T21:19:10.039Z,51.57
2022-09-01T21:21:47.283Z,51.21
2022-09-01T21:24:14.092Z,51.45
2022-09-01T21:26:49.403Z,50.99
2022-09-01T21:29:31.946Z,50.69
2022-09-01T21:32:01.835Z,50.89
2022-09-01T21:34:30.815Z,50.95
2022-09-01T21:36:57.614Z,50.41
2022-09-01T21:39:24.493Z,50.14
2022-09-01T21:41:51.531Z,49.88
2022-09-01T21:44:18.440Z,49.97
2022-09-01T21:46:45.264Z,49.78
2022-09-01T21:49:14.738Z,48.68
2022-09-01T21:51:42.193Z,48.97
2022-09-01T21:54:11.204Z,48.83
2022-09-01T21:56:40.887Z,48.60
2022-09-01T21:59:11.440Z,48.56
2022-09-01T22:01:42.900Z,48.60
2022-09-01T22:04:10.102Z,47.71
2022-09-01T22:06:38.992Z,47.77
2022-09-01T22:09:20.548Z,48.55
2022-09-01T22:11:49.808Z,48.16
2022-09-01T22:14:19.878Z,47.23
2022-09-01T22:16:50.048Z,46.97
2022-09-01T22:19:20.311Z,47.09
2022-09-01T22:21:47.196Z,46.56
2022-09-01T22:24:19.646Z,46.86
2022-09-01T22:26:49.292Z,46.98
2022-09-01T22:29:23.504Z,47.08
2022-09-01T22:31:50.337Z,47.60
2022-09-01T22:34:21.837Z,46.71
2022-09-01T22:36:51.253Z,46.58
2022-09-01T22:39:18.643Z,46.95
2022-09-01T22:41:47.325Z,46.95
2022-09-01T22:44:14.255Z,46.80
2022-09-01T22:46:40.995Z,46.92
2022-09-01T22:49:08.302Z,46.59
2022-09-01T22:51:37.242Z,46.66
2022-09-01T22:54:04.249Z,47.03
2022-09-01T22:56:33.591Z,47.52
2022-09-01T22:59:04.513Z,47.76
2022-09-01T23:01:37.881Z,47.41
2022-09-01T23:04:06.479Z,46.99
2022-09-01T23:06:34.990Z,46.78
2022-09-01T23:09:02.730Z,46.31
2022-09-01T23:11:30.025Z,46.62
2022-09-01T23:13:57.347Z,46.33
2022-09-01T23:16:27.654Z,46.29
2022-09-01T23:18:58.125Z,46.39
2022-09-01T23:21:28.773Z,46.29
2022-09-01T23:23:58.752Z,46.10
2022-09-01T23:26:29.762Z,45.72
2022-09-01T23:28:56.886Z,46.35
2022-09-01T23:31:29.507Z,46.09
2022-09-01T23:34:00.118Z,46.60
2022-09-01T23:36:30.624Z,45.59
2022-09-01T23:38:58.158Z,45.74
2022-09-01T23:41:31.295Z,45.74
2022-09-01T23:44:01.418Z,45.84
2022-09-01T23:46:33.385Z,44.95
2022-09-01T23:49:04.107Z,45.61
2022-09-01T23:51:31.115Z,45.41
2022-09-01T23:54:00.675Z,45.34
2022-09-01T23:56:28.833Z,45.07
2022-09-01T23:58:55.626Z,45.33
